Fort Lewis, Washington
Current Conditions -  °F | °C
As of 12:58 AM on Wednesday 28 Jan 2015 (Local Time) from KGRF Reporting Station
Overcast Overcast  
Wind Chill: 46°   Ceiling: 1500
Heat Index: 46°   Visibility: 10mi
Dew Point: 44°   Wind: 2mph
Humidity: 94%   Direction: 150°SSE
Pressure: 30.28"   Gusts: NA
Location:  47.04°N, 122.6°W
Report Text: KGRF 280858Z AUTO 15002KT 10SM OVC015 08/07 A3028 RMK AO2 SLP259 T00760067 52015 $
Loading
Personal Weather Stations






























Interactive Weather Map New forecast layout! Learn more

10-Day Weather Forecast

Advertisements
Track Severe Weather on mobile